Time;durP1;ratioP1;P1;durP2;ratioP2;P2;SDS_P1;SDS_P2;PMS_P1;PMS_P2;Temp;Humidity;BMP_temperature;BMP_pressure;BME280_temperature;BME280_humidity;BME280_pressure;Samples;Min_cycle;Max_cycle;Signal;HPM_P1;HPM_P2
2022/01/08 00:00:37;;;;;;;16.27;9.77;;;-2.10;99.90;;;;;;4993274;28;20338;-68
2022/01/08 00:03:03;;;;;;;22.20;10.90;;;-2.10;99.90;;;;;;4992958;28;20214;-69
2022/01/08 00:05:30;;;;;;;25.73;13.10;;;-2.10;99.90;;;;;;4992926;28;20234;-68
2022/01/08 00:07:57;;;;;;;22.73;11.17;;;-2.10;99.90;;;;;;4992837;28;20208;-68
2022/01/08 00:10:24;;;;;;;19.73;10.03;;;-2.10;99.90;;;;;;4992961;28;20210;-67
2022/01/08 00:12:51;;;;;;;17.83;10.40;;;-2.10;99.90;;;;;;4992962;28;20223;-67
2022/01/08 00:15:18;;;;;;;18.00;10.27;;;-2.10;99.90;;;;;;4992875;28;20271;-66
2022/01/08 00:17:47;;;;;;;22.87;11.03;;;-2.10;99.90;;;;;;4992910;28;20633;-67
2022/01/08 00:20:14;;;;;;;22.90;11.77;;;-2.20;99.90;;;;;;4992756;28;20208;-66
2022/01/08 00:22:41;;;;;;;22.67;11.37;;;-2.10;99.90;;;;;;4992321;28;20203;-65
2022/01/08 00:25:10;;;;;;;21.37;11.63;;;-2.10;99.90;;;;;;4992290;28;20310;-68
2022/01/08 00:27:37;;;;;;;22.57;11.70;;;-2.10;99.90;;;;;;4992700;28;20226;-67
2022/01/08 00:30:04;;;;;;;28.57;12.60;;;-2.10;99.90;;;;;;4992774;28;20208;-67
2022/01/08 00:32:31;;;;;;;20.43;11.47;;;-2.10;99.90;;;;;;4973307;28;20208;-67
2022/01/08 00:34:59;;;;;;;23.43;12.27;;;-2.10;99.90;;;;;;4972793;28;20224;-66
2022/01/08 00:37:26;;;;;;;24.83;12.27;;;-2.10;99.90;;;;;;4973029;28;20673;-67
2022/01/08 00:39:53;;;;;;;23.80;11.57;;;-2.10;99.90;;;;;;4973406;28;20204;-67
2022/01/08 00:42:20;;;;;;;21.10;11.30;;;-2.10;99.90;;;;;;4973566;28;20208;-66
2022/01/08 00:44:46;;;;;;;25.77;12.40;;;-2.10;99.90;;;;;;4992389;28;20211;-66
2022/01/08 00:47:13;;;;;;;25.70;12.33;;;-2.20;99.90;;;;;;4992080;28;20208;-67
2022/01/08 00:49:40;;;;;;;27.00;11.90;;;-2.20;99.90;;;;;;4992234;28;20217;-68
2022/01/08 00:52:08;;;;;;;25.33;11.80;;;-2.20;99.90;;;;;;4992180;28;20213;-65
2022/01/08 00:54:36;;;;;;;20.80;11.30;;;-2.20;99.90;;;;;;4992351;28;20227;-66
2022/01/08 00:57:04;;;;;;;20.63;11.30;;;-2.20;99.90;;;;;;4992042;28;20691;-68
2022/01/08 00:59:31;;;;;;;21.83;11.17;;;-2.20;99.90;;;;;;4991989;28;20326;-66
2022/01/08 01:01:58;;;;;;;21.47;11.73;;;-2.20;99.90;;;;;;4992303;28;20207;-66
2022/01/08 01:04:24;;;;;;;22.23;11.77;;;-2.20;99.90;;;;;;4992257;28;20652;-66
2022/01/08 01:06:51;;;;;;;28.17;11.87;;;-2.20;99.90;;;;;;4991663;28;20207;-66
2022/01/08 01:09:19;;;;;;;20.80;10.67;;;-2.10;99.90;;;;;;4980032;28;20204;-67
2022/01/08 01:11:46;;;;;;;21.67;11.53;;;-2.10;99.90;;;;;;4990746;28;20224;-67
2022/01/08 01:14:13;;;;;;;21.77;11.67;;;-2.10;99.90;;;;;;4987565;28;20200;-65
2022/01/08 01:16:40;;;;;;;25.40;12.67;;;-2.20;99.90;;;;;;4986596;28;20208;-68
2022/01/08 01:19:07;;;;;;;26.40;12.33;;;-2.30;99.90;;;;;;4990368;28;20213;-67
2022/01/08 01:21:33;;;;;;;31.63;13.90;;;-2.30;99.90;;;;;;4990714;28;20258;-66
2022/01/08 01:24:07;;;;;;;27.33;13.10;;;-2.30;99.90;;;;;;4990215;28;20656;-66
2022/01/08 01:26:38;;;;;;;22.40;11.70;;;-2.40;99.90;;;;;;4987216;28;20275;-67
2022/01/08 01:29:25;;;;;;;22.00;11.23;;;-2.30;99.90;;;;;;4990177;28;20238;-66
2022/01/08 01:43:22;;;;;;;25.53;12.20;;;-2.20;99.90;;;;;;4990456;28;20565;-67
2022/01/08 01:48:33;;;;;;;25.77;12.77;;;-2.20;99.90;;;;;;4989847;28;20262;-66
2022/01/08 01:51:00;;;;;;;27.17;13.47;;;-2.20;99.90;;;;;;4994002;28;20314;-67
2022/01/08 01:53:26;;;;;;;29.90;13.63;;;-2.20;99.90;;;;;;4995471;28;20208;-66
2022/01/08 01:55:53;;;;;;;28.83;13.73;;;-2.20;99.90;;;;;;4995353;28;20688;-68
2022/01/08 01:58:22;;;;;;;27.67;12.77;;;-2.20;99.90;;;;;;4995730;28;20207;-66
2022/01/08 02:00:50;;;;;;;24.43;12.33;;;-2.20;99.90;;;;;;4995187;28;20738;-66
2022/01/08 02:03:17;;;;;;;28.27;13.20;;;-2.20;99.90;;;;;;4995440;28;20633;-66
2022/01/08 02:05:45;;;;;;;28.40;12.90;;;-2.20;99.90;;;;;;4995489;28;20206;-69
2022/01/08 02:08:13;;;;;;;29.60;13.47;;;-2.10;99.90;;;;;;4995045;28;20231;-66
2022/01/08 02:10:40;;;;;;;30.67;13.03;;;-2.10;99.90;;;;;;4995307;28;20294;-66
2022/01/08 02:13:07;;;;;;;28.07;13.00;;;-2.10;99.90;;;;;;4993620;28;20203;-65
2022/01/08 02:15:36;;;;;;;28.23;13.17;;;-2.10;99.90;;;;;;4993340;28;20587;-67
2022/01/08 02:18:04;;;;;;;30.73;12.87;;;-2.10;99.90;;;;;;4994891;28;20544;-66
2022/01/08 02:20:32;;;;;;;25.53;12.20;;;-2.20;99.90;;;;;;4995292;28;20237;-66
2022/01/08 02:22:59;;;;;;;26.63;12.00;;;-2.10;99.90;;;;;;4994647;28;20206;-66
2022/01/08 02:25:26;;;;;;;25.97;12.13;;;-2.10;99.90;;;;;;4995140;28;20206;-66
2022/01/08 02:27:53;;;;;;;21.93;10.60;;;-2.10;99.90;;;;;;4994270;28;20223;-67
2022/01/08 02:30:19;;;;;;;19.43;10.97;;;-2.10;99.90;;;;;;4995042;28;20207;-67
2022/01/08 02:32:46;;;;;;;18.67;10.77;;;-2.10;99.90;;;;;;4994801;28;20613;-65
2022/01/08 02:35:13;;;;;;;18.43;9.80;;;-2.10;99.90;;;;;;4994565;28;20242;-67
2022/01/08 02:37:41;;;;;;;19.93;10.10;;;-2.00;99.90;;;;;;4994871;28;20204;-67
2022/01/08 02:40:11;;;;;;;21.23;10.47;;;-2.00;99.90;;;;;;4994350;28;20222;-67
2022/01/08 02:42:48;;;;;;;22.57;11.67;;;-2.00;99.90;;;;;;4994923;28;20207;-67
2022/01/08 02:45:16;;;;;;;28.07;14.43;;;-2.10;99.90;;;;;;4994791;28;20191;-65
2022/01/08 02:47:42;;;;;;;27.07;13.43;;;-2.10;99.90;;;;;;4994256;28;20203;-68
2022/01/08 02:50:10;;;;;;;23.13;12.90;;;-2.20;99.90;;;;;;4994805;28;20207;-67
2022/01/08 02:52:42;;;;;;;28.37;14.90;;;-2.20;99.90;;;;;;4994752;28;20218;-67
2022/01/08 02:55:10;;;;;;;31.63;15.57;;;-2.30;99.90;;;;;;4994369;28;20262;-66
2022/01/08 02:57:37;;;;;;;32.70;16.53;;;-2.30;99.90;;;;;;4993898;28;20211;-67
2022/01/08 03:00:07;;;;;;;38.63;17.27;;;-2.50;99.90;;;;;;4993965;28;20239;-65
2022/01/08 03:02:34;;;;;;;38.50;19.27;;;-2.50;99.90;;;;;;4994122;28;20665;-66
2022/01/08 03:05:01;;;;;;;41.50;20.33;;;-2.60;99.90;;;;;;4994270;28;20558;-67
2022/01/08 03:07:28;;;;;;;41.00;19.73;;;-2.60;99.90;;;;;;4993359;28;20829;-66
2022/01/08 03:09:57;;;;;;;46.50;21.27;;;-2.70;99.90;;;;;;4993809;28;20572;-67
2022/01/08 03:12:26;;;;;;;44.27;21.67;;;-2.80;99.90;;;;;;4994125;28;20230;-66
2022/01/08 03:14:54;;;;;;;35.73;19.27;;;-2.80;99.90;;;;;;4993386;28;20205;-66
2022/01/08 03:17:21;;;;;;;43.37;20.27;;;-2.80;99.90;;;;;;4994098;28;20211;-68
2022/01/08 03:19:50;;;;;;;43.50;20.07;;;-2.80;99.90;;;;;;4993825;28;20217;-68
2022/01/08 03:22:17;;;;;;;40.70;18.80;;;-2.80;99.90;;;;;;4993585;28;20262;-66
2022/01/08 03:24:44;;;;;;;38.37;18.67;;;-2.80;99.90;;;;;;4993508;28;20573;-66
2022/01/08 03:27:12;;;;;;;44.70;19.93;;;-2.80;99.90;;;;;;4993977;28;20676;-66
2022/01/08 03:29:39;;;;;;;43.20;20.17;;;-2.80;99.90;;;;;;4993312;28;20214;-66
2022/01/08 03:32:07;;;;;;;37.47;18.67;;;-2.80;99.90;;;;;;4994002;28;20203;-66
2022/01/08 03:34:33;;;;;;;36.57;18.20;;;-2.80;99.90;;;;;;4993752;28;20573;-66
2022/01/08 03:37:00;;;;;;;41.33;18.33;;;-2.80;99.90;;;;;;4993316;28;20227;-66
2022/01/08 03:39:27;;;;;;;40.07;18.57;;;-2.80;99.90;;;;;;4993589;28;20573;-66
2022/01/08 03:41:54;;;;;;;39.77;18.90;;;-2.80;99.90;;;;;;4993388;28;20211;-69
2022/01/08 03:44:22;;;;;;;39.47;18.67;;;-2.80;99.90;;;;;;4993624;28;20207;-67
2022/01/08 03:46:49;;;;;;;38.17;19.10;;;-2.80;99.90;;;;;;4993043;28;20207;-66
2022/01/08 03:49:25;;;;;;;39.70;19.57;;;-2.80;99.90;;;;;;4993391;28;20207;-67
2022/01/08 03:51:53;;;;;;;43.87;21.03;;;-2.80;99.90;;;;;;4993415;28;20198;-65
2022/01/08 03:54:20;;;;;;;40.13;20.63;;;-2.90;99.90;;;;;;4993088;28;20212;-66
2022/01/08 03:56:47;;;;;;;44.40;20.70;;;-2.90;99.90;;;;;;4993387;28;20573;-67
2022/01/08 03:59:14;;;;;;;44.07;20.83;;;-3.00;99.90;;;;;;4993032;28;20330;-65
2022/01/08 04:01:43;;;;;;;46.03;22.27;;;-3.10;99.90;;;;;;4992647;28;20305;-67
2022/01/08 04:04:09;;;;;;;45.00;21.00;;;-3.20;99.90;;;;;;4973772;28;20550;-67
2022/01/08 04:06:36;;;;;;;43.83;21.27;;;-3.30;99.90;;;;;;4973335;28;20211;-66
2022/01/08 04:09:03;;;;;;;41.27;21.30;;;-3.30;99.90;;;;;;4973657;28;20216;-66
2022/01/08 04:11:30;;;;;;;43.27;21.67;;;-3.40;99.90;;;;;;4973682;28;20265;-68
2022/01/08 04:13:57;;;;;;;46.97;22.67;;;-3.40;99.90;;;;;;4972801;28;20846;-68
2022/01/08 04:16:29;;;;;;;43.50;21.37;;;-3.50;99.90;;;;;;4973526;28;20257;-65
2022/01/08 04:18:58;;;;;;;40.03;20.07;;;-3.40;99.90;;;;;;4973406;28;20193;-67
2022/01/08 04:24:17;;;;;;;31.50;16.53;;;-3.40;99.90;;;;;;4988456;28;20195;-68
2022/01/08 04:26:44;;;;;;;33.00;15.43;;;-3.40;99.90;;;;;;4992734;28;20203;-67
2022/01/08 04:29:11;;;;;;;32.10;14.70;;;-3.30;99.90;;;;;;4992724;28;20226;-66
2022/01/08 04:31:38;;;;;;;30.73;14.53;;;-3.30;99.90;;;;;;4992076;28;20631;-67
2022/01/08 04:34:06;;;;;;;27.30;14.17;;;-3.30;99.90;;;;;;4992695;28;20207;-66
2022/01/08 04:36:33;;;;;;;24.53;13.47;;;-3.30;99.90;;;;;;4992396;28;20239;-66
2022/01/08 04:39:00;;;;;;;29.03;14.23;;;-3.30;99.90;;;;;;4992678;28;20215;-66
2022/01/08 04:41:26;;;;;;;29.00;14.03;;;-3.30;99.90;;;;;;4992421;28;20628;-66
2022/01/08 04:43:53;;;;;;;28.73;13.47;;;-3.20;99.90;;;;;;4992617;28;20214;-66
2022/01/08 04:46:20;;;;;;;30.70;16.47;;;-3.30;99.90;;;;;;4992044;28;20208;-66
2022/01/08 04:48:47;;;;;;;29.63;14.93;;;-3.30;99.90;;;;;;4992189;28;20218;-68
2022/01/08 04:51:15;;;;;;;26.07;13.47;;;-3.40;99.90;;;;;;4992182;28;20552;-66
2022/01/08 04:53:42;;;;;;;30.80;15.20;;;-3.40;99.90;;;;;;4992315;28;20213;-67
2022/01/08 04:56:09;;;;;;;33.33;14.70;;;-3.40;99.90;;;;;;4992418;28;20223;-65
2022/01/08 04:58:35;;;;;;;29.47;13.80;;;-3.30;99.90;;;;;;4991691;28;20210;-68
2022/01/08 05:01:02;;;;;;;28.93;14.53;;;-3.20;99.90;;;;;;4992268;28;20203;-67
2022/01/08 05:03:29;;;;;;;24.87;13.60;;;-3.20;99.90;;;;;;4992340;28;20207;-68
2022/01/08 05:05:56;;;;;;;29.90;14.27;;;-3.20;99.90;;;;;;4992240;28;20208;-69
2022/01/08 05:08:24;;;;;;;28.27;14.80;;;-3.10;99.90;;;;;;4992239;28;20290;-68
2022/01/08 05:10:51;;;;;;;26.17;13.77;;;-3.10;99.90;;;;;;4991989;28;20210;-66
2022/01/08 05:13:17;;;;;;;27.67;14.77;;;-3.10;99.90;;;;;;4992218;28;20224;-67
2022/01/08 05:15:44;;;;;;;30.93;15.23;;;-3.10;99.90;;;;;;4991884;28;20218;-67
2022/01/08 05:18:11;;;;;;;40.83;20.90;;;-3.10;99.90;;;;;;4991691;28;20208;-67
2022/01/08 05:20:41;;;;;;;28.50;15.37;;;-3.00;99.90;;;;;;4991970;28;20668;-67
2022/01/08 05:23:08;;;;;;;27.87;14.60;;;-3.10;99.90;;;;;;4991905;28;20203;-67
2022/01/08 05:25:36;;;;;;;27.53;14.53;;;-3.10;99.90;;;;;;4995451;28;20211;-67
2022/01/08 05:28:04;;;;;;;29.97;14.97;;;-3.10;99.90;;;;;;4995628;28;20224;-67
2022/01/08 05:30:31;;;;;;;30.17;14.83;;;-3.20;99.90;;;;;;4995945;28;20544;-68
2022/01/08 05:32:58;;;;;;;28.37;15.13;;;-3.20;99.90;;;;;;4996028;28;20544;-66
2022/01/08 05:35:26;;;;;;;28.97;15.13;;;-3.20;99.90;;;;;;4995759;28;20566;-68
2022/01/08 05:37:53;;;;;;;31.73;16.63;;;-3.30;99.90;;;;;;4995546;28;20591;-67
2022/01/08 05:40:20;;;;;;;36.47;16.43;;;-3.40;99.90;;;;;;4995782;28;20199;-66
2022/01/08 05:42:49;;;;;;;30.93;16.53;;;-3.50;99.90;;;;;;4995741;28;20618;-66
2022/01/08 05:45:16;;;;;;;33.20;17.43;;;-3.50;99.90;;;;;;4995483;28;20212;-67
2022/01/08 05:47:43;;;;;;;29.37;16.67;;;-3.50;99.90;;;;;;4995588;28;20199;-66
2022/01/08 05:50:10;;;;;;;31.47;16.57;;;-3.50;99.90;;;;;;4994973;28;20204;-69
2022/01/08 05:52:37;;;;;;;31.70;16.83;;;-3.50;99.90;;;;;;4995271;28;20205;-68
2022/01/08 05:55:05;;;;;;;36.17;17.27;;;-3.50;99.90;;;;;;4995595;28;20573;-67
2022/01/08 05:57:32;;;;;;;35.33;17.00;;;-3.50;99.90;;;;;;4995168;28;20583;-66
2022/01/08 06:00:01;;;;;;;34.83;17.80;;;-3.50;99.90;;;;;;4994988;28;20239;-66
2022/01/08 06:02:28;;;;;;;32.27;16.40;;;-3.60;99.90;;;;;;4995292;28;20211;-67
2022/01/08 06:04:55;;;;;;;35.07;16.93;;;-3.60;99.90;;;;;;4995104;28;20218;-66
2022/01/08 06:07:22;;;;;;;34.20;16.97;;;-3.60;99.90;;;;;;4995146;28;20611;-67
2022/01/08 06:09:48;;;;;;;30.43;15.77;;;-3.50;99.90;;;;;;4994838;28;20660;-68
2022/01/08 06:12:15;;;;;;;32.87;16.83;;;-3.50;99.90;;;;;;4995371;28;20547;-67
2022/01/08 06:14:42;;;;;;;32.67;16.47;;;-3.60;99.90;;;;;;4995243;28;20208;-66
2022/01/08 06:17:11;;;;;;;30.90;16.17;;;-3.50;99.90;;;;;;4994897;28;20249;-66
2022/01/08 06:19:38;;;;;;;31.07;15.87;;;-3.50;99.90;;;;;;4994893;28;20203;-65
2022/01/08 06:22:05;;;;;;;30.20;15.47;;;-3.50;99.90;;;;;;4995182;28;20203;-66
2022/01/08 06:24:32;;;;;;;27.47;14.13;;;-3.40;99.90;;;;;;4994970;28;20211;-68
2022/01/08 06:26:59;;;;;;;25.97;13.73;;;-3.40;99.90;;;;;;4994111;28;20196;-68
2022/01/08 06:29:26;;;;;;;30.27;12.80;;;-3.30;99.90;;;;;;4994534;28;20547;-67
2022/01/08 06:31:53;;;;;;;25.67;13.33;;;-3.30;99.90;;;;;;4994274;28;20218;-68
2022/01/08 06:34:21;;;;;;;25.87;14.00;;;-3.30;99.90;;;;;;4994261;28;20227;-68
2022/01/08 06:36:48;;;;;;;27.23;13.43;;;-3.20;99.90;;;;;;4993744;28;20234;-67
2022/01/08 06:39:15;;;;;;;24.37;13.27;;;-3.10;99.90;;;;;;4994588;28;20540;-67
2022/01/08 06:41:42;;;;;;;22.40;13.13;;;-3.10;99.90;;;;;;4994377;28;20203;-69
2022/01/08 06:44:08;;;;;;;26.83;13.33;;;-3.10;99.90;;;;;;4994856;28;20572;-66
2022/01/08 06:46:36;;;;;;;33.97;14.47;;;-3.10;99.90;;;;;;4994360;28;20576;-66
2022/01/08 06:49:03;;;;;;;29.40;14.60;;;-3.10;99.90;;;;;;4994386;28;20575;-67
2022/01/08 06:51:31;;;;;;;31.60;15.83;;;-3.00;99.90;;;;;;4993753;28;20207;-67
2022/01/08 06:53:57;;;;;;;33.00;16.47;;;-2.90;99.90;;;;;;4994436;28;20576;-69
2022/01/08 06:56:24;;;;;;;32.70;15.20;;;-2.90;99.90;;;;;;4994352;28;20227;-68
2022/01/08 06:58:51;;;;;;;33.87;15.13;;;-2.90;99.90;;;;;;4994124;28;20207;-66
2022/01/08 07:01:18;;;;;;;27.70;15.13;;;-3.00;99.90;;;;;;4994011;28;20311;-67
2022/01/08 07:03:44;;;;;;;27.57;13.47;;;-3.00;99.90;;;;;;4994078;28;20684;-67
2022/01/08 07:06:11;;;;;;;29.83;14.70;;;-3.00;99.90;;;;;;4994048;28;20215;-67
2022/01/08 07:08:40;;;;;;;25.20;13.20;;;-2.90;99.90;;;;;;4993920;28;20203;-66
2022/01/08 07:11:07;;;;;;;20.97;11.90;;;-2.90;99.90;;;;;;4994002;28;20207;-65
2022/01/08 07:13:33;;;;;;;20.53;11.83;;;-2.80;99.90;;;;;;4993873;28;20238;-67
2022/01/08 07:16:00;;;;;;;21.00;11.70;;;-2.80;99.90;;;;;;4993519;28;20203;-68
2022/01/08 07:18:27;;;;;;;22.17;10.93;;;-2.70;99.90;;;;;;4993693;28;20234;-69
2022/01/08 07:20:54;;;;;;;22.53;11.33;;;-2.70;99.90;;;;;;4993621;28;20212;-69
2022/01/08 07:23:21;;;;;;;20.17;10.97;;;-2.60;99.90;;;;;;4992748;28;20207;-66
2022/01/08 07:25:49;;;;;;;23.17;10.53;;;-2.70;99.90;;;;;;4993666;28;20660;-67
2022/01/08 07:28:16;;;;;;;23.60;11.27;;;-2.70;99.90;;;;;;4993090;28;20206;-67
2022/01/08 07:30:44;;;;;;;20.33;10.50;;;-2.60;99.90;;;;;;4993823;28;20214;-69
2022/01/08 07:33:11;;;;;;;27.30;11.30;;;-2.60;99.90;;;;;;4993279;28;20220;-68
2022/01/08 07:35:38;;;;;;;23.07;9.87;;;-2.50;99.90;;;;;;4993472;28;20668;-66
2022/01/08 07:38:05;;;;;;;20.70;10.00;;;-2.50;99.90;;;;;;4992991;28;20230;-66
2022/01/08 07:40:32;;;;;;;26.50;10.43;;;-2.40;99.90;;;;;;4992295;28;20218;-66
2022/01/08 07:43:00;;;;;;;21.93;9.93;;;-2.40;99.90;;;;;;4973677;28;20212;-67
2022/01/08 07:45:27;;;;;;;24.03;10.50;;;-2.30;99.90;;;;;;4982691;28;20591;-67
2022/01/08 07:47:54;;;;;;;24.23;10.80;;;-2.30;99.90;;;;;;4992102;28;20208;-67
2022/01/08 07:50:21;;;;;;;22.43;10.90;;;-2.30;99.90;;;;;;4993216;28;20297;-67
2022/01/08 07:52:47;;;;;;;16.97;9.70;;;-2.20;99.90;;;;;;4993540;28;20267;-68
2022/01/08 07:55:14;;;;;;;24.20;10.00;;;-2.10;99.90;;;;;;4992620;28;20211;-67
2022/01/08 07:57:41;;;;;;;24.60;10.50;;;-2.10;99.90;;;;;;4993226;28;20227;-66
2022/01/08 08:00:11;;;;;;;20.57;10.03;;;-2.00;99.90;;;;;;4992864;28;20728;-68
2022/01/08 08:02:37;;;;;;;21.03;9.47;;;-2.00;99.90;;;;;;4992991;28;20687;-65
2022/01/08 08:05:05;;;;;;;21.27;9.87;;;-1.90;99.90;;;;;;4992458;28;20652;-66
2022/01/08 08:07:37;;;;;;;19.10;9.57;;;-1.90;99.90;;;;;;4992750;28;20219;-67
2022/01/08 08:10:06;;;;;;;17.97;9.40;;;-1.90;99.90;;;;;;4991934;28;20231;-68
2022/01/08 08:12:33;;;;;;;20.40;10.50;;;-1.70;99.90;;;;;;4992841;28;20211;-67
2022/01/08 08:14:59;;;;;;;17.53;9.03;;;-1.70;99.90;;;;;;4991967;28;20545;-67
2022/01/08 08:17:28;;;;;;;18.80;9.40;;;-1.60;99.90;;;;;;4992444;28;20234;-67
2022/01/08 08:19:54;;;;;;;16.67;9.43;;;-1.50;99.90;;;;;;4992737;28;20204;-67
2022/01/08 08:22:21;;;;;;;16.87;9.60;;;-1.50;99.90;;;;;;4992061;28;20718;-65
2022/01/08 08:24:48;;;;;;;19.43;9.40;;;-1.40;99.90;;;;;;4992777;28;20535;-68
2022/01/08 08:27:15;;;;;;;20.97;9.17;;;-1.30;99.90;;;;;;4992663;28;20542;-68
2022/01/08 08:29:41;;;;;;;16.37;8.97;;;-1.20;99.90;;;;;;4992551;28;20207;-67
2022/01/08 08:32:08;;;;;;;18.10;9.40;;;-1.10;99.90;;;;;;4992203;28;20211;-67
2022/01/08 08:34:37;;;;;;;15.57;8.90;;;-1.10;99.90;;;;;;4992380;28;20199;-67
2022/01/08 08:37:04;;;;;;;16.43;8.97;;;-1.00;99.90;;;;;;4992044;28;20234;-66
2022/01/08 08:39:31;;;;;;;15.40;8.50;;;-1.00;99.90;;;;;;4992741;28;20697;-67
2022/01/08 08:41:58;;;;;;;16.93;8.90;;;-0.90;99.90;;;;;;4992173;28;20207;-67
2022/01/08 08:44:24;;;;;;;15.37;8.30;;;-0.80;99.90;;;;;;4992100;28;20206;-69
2022/01/08 08:46:51;;;;;;;14.60;8.07;;;-0.70;99.90;;;;;;4992357;28;20218;-68
2022/01/08 08:49:18;;;;;;;13.80;7.67;;;-0.70;99.90;;;;;;4992274;28;20640;-69
2022/01/08 08:51:46;;;;;;;13.67;7.70;;;-0.60;99.90;;;;;;4992632;28;20210;-68
2022/01/08 08:54:13;;;;;;;12.93;7.30;;;-0.60;99.90;;;;;;4992216;28;20203;-68
2022/01/08 08:56:42;;;;;;;14.63;7.77;;;-0.50;99.90;;;;;;4991954;28;20202;-69
2022/01/08 08:59:09;;;;;;;13.50;7.63;;;-0.50;99.90;;;;;;4991715;28;20251;-68
2022/01/08 09:01:36;;;;;;;15.00;7.00;;;-0.40;99.90;;;;;;4992618;28;20798;-66
2022/01/08 09:04:03;;;;;;;14.80;7.03;;;-0.40;99.90;;;;;;4992119;28;20628;-67
2022/01/08 09:06:30;;;;;;;13.63;7.57;;;-0.30;99.90;;;;;;4992436;28;20218;-70
2022/01/08 09:08:58;;;;;;;14.07;7.50;;;-0.30;99.90;;;;;;4992192;28;20235;-68
2022/01/08 09:11:26;;;;;;;16.93;9.73;;;-0.20;99.90;;;;;;4992601;28;20646;-68
2022/01/08 09:13:53;;;;;;;15.67;8.13;;;-0.20;99.90;;;;;;4991833;28;20555;-69
2022/01/08 09:16:20;;;;;;;14.40;7.40;;;-0.10;99.90;;;;;;4991621;28;20195;-67
2022/01/08 09:18:47;;;;;;;15.17;7.33;;;-0.10;99.90;;;;;;4992376;28;20233;-69
2022/01/08 09:21:15;;;;;;;10.93;7.03;;;0.00;99.90;;;;;;4992108;28;20219;-71
2022/01/08 09:23:42;;;;;;;17.33;7.97;;;0.00;99.90;;;;;;4991830;28;20266;-67
2022/01/08 09:26:10;;;;;;;15.03;7.37;;;0.10;99.90;;;;;;4991292;28;20206;-68
2022/01/08 09:28:37;;;;;;;15.97;7.63;;;0.10;99.90;;;;;;4991733;28;20196;-68
2022/01/08 09:31:04;;;;;;;12.30;7.40;;;0.20;99.90;;;;;;4991858;28;20204;-67
2022/01/08 09:33:32;;;;;;;12.20;6.73;;;0.20;99.90;;;;;;4992262;28;20223;-67
2022/01/08 09:36:00;;;;;;;10.00;6.43;;;0.20;99.90;;;;;;4991952;28;20207;-68
2022/01/08 09:38:26;;;;;;;12.60;6.87;;;0.20;99.90;;;;;;4991605;28;20245;-67
2022/01/08 09:40:53;;;;;;;12.53;6.87;;;0.30;99.90;;;;;;4991799;28;20210;-67
2022/01/08 09:43:22;;;;;;;10.63;6.93;;;0.40;99.90;;;;;;4991751;28;20200;-69
2022/01/08 09:45:49;;;;;;;11.33;6.20;;;0.40;99.90;;;;;;4991490;28;20215;-68
2022/01/08 09:48:16;;;;;;;10.67;6.23;;;0.40;99.90;;;;;;4992128;28;20223;-69
2022/01/08 09:50:44;;;;;;;10.80;6.00;;;0.40;99.90;;;;;;4991577;28;20569;-67
2022/01/08 09:53:11;;;;;;;13.10;6.67;;;0.40;99.90;;;;;;4991743;28;20204;-67
2022/01/08 09:55:38;;;;;;;10.07;5.90;;;0.40;99.90;;;;;;4991622;28;20210;-66
2022/01/08 09:58:05;;;;;;;10.53;6.53;;;0.30;99.90;;;;;;4991403;28;20227;-67
2022/01/08 10:00:35;;;;;;;11.37;6.57;;;0.30;99.90;;;;;;4991187;28;20245;-67
2022/01/08 10:03:15;;;;;;;11.83;6.70;;;0.40;99.90;;;;;;4991358;28;20218;-65
2022/01/08 10:05:48;;;;;;;9.40;5.83;;;0.40;99.90;;;;;;4991643;28;20203;-67
2022/01/08 10:08:16;;;;;;;11.13;6.27;;;0.50;99.90;;;;;;4990862;28;20211;-67
2022/01/08 10:10:55;;;;;;;9.30;5.73;;;0.40;99.90;;;;;;4992301;28;20330;-68
2022/01/08 10:13:23;;;;;;;9.17;5.70;;;0.40;99.90;;;;;;4995857;28;20607;-69
2022/01/08 10:18:38;;;;;;;9.30;6.13;;;0.40;99.90;;;;;;4992784;28;20270;-67
2022/01/08 10:21:20;;;;;;;11.73;6.30;;;0.40;99.90;;;;;;4993947;28;20288;-66
2022/01/08 10:23:50;;;;;;;9.43;4.87;;;0.40;99.90;;;;;;4989695;28;20194;-65
2022/01/08 10:26:20;;;;;;;7.00;4.43;;;0.40;99.90;;;;;;4994861;28;20214;-68
2022/01/08 10:28:50;;;;;;;9.50;4.37;;;0.40;99.90;;;;;;4994798;28;20242;-68
2022/01/08 10:31:21;;;;;;;6.57;4.27;;;0.40;99.90;;;;;;4992515;28;20204;-67
2022/01/08 10:33:51;;;;;;;7.53;4.60;;;0.40;99.90;;;;;;4994456;28;20273;-66
2022/01/08 10:36:26;;;;;;;8.23;5.00;;;0.30;99.90;;;;;;4995022;28;20200;-66
2022/01/08 10:38:55;;;;;;;8.03;4.60;;;0.40;99.90;;;;;;4994969;28;20305;-67
2022/01/08 10:41:23;;;;;;;5.73;4.10;;;0.40;99.90;;;;;;4991425;28;20209;-67
2022/01/08 10:44:06;;;;;;;7.03;4.30;;;0.40;99.90;;;;;;4993778;28;20210;-67
2022/01/08 10:46:35;;;;;;;9.43;4.87;;;0.40;99.90;;;;;;4991695;28;20191;-68
2022/01/08 10:49:03;;;;;;;6.03;4.30;;;0.50;99.90;;;;;;4993941;28;20302;-69
2022/01/08 10:51:35;;;;;;;6.13;4.27;;;0.50;99.90;;;;;;4994939;28;20211;-67
2022/01/08 10:54:05;;;;;;;6.93;4.17;;;0.50;99.90;;;;;;4994886;28;20195;-67
2022/01/08 10:56:34;;;;;;;6.13;4.10;;;0.50;99.90;;;;;;4994073;28;20249;-67
2022/01/08 10:59:04;;;;;;;12.13;4.37;;;0.50;99.90;;;;;;4994244;28;20239;-66
2022/01/08 11:01:51;;;;;;;6.77;3.67;;;0.60;99.90;;;;;;4994576;28;20200;-66
2022/01/08 11:04:20;;;;;;;7.43;4.20;;;0.60;99.90;;;;;;4993267;28;20199;-66
2022/01/08 11:06:55;;;;;;;6.73;4.60;;;0.60;99.90;;;;;;4994222;28;20222;-69
2022/01/08 11:09:22;;;;;;;8.87;4.70;;;0.60;99.90;;;;;;4993783;28;20198;-64
2022/01/08 11:11:50;;;;;;;7.07;4.10;;;0.60;99.90;;;;;;4993691;28;20210;-68
2022/01/08 11:14:44;;;;;;;6.07;4.03;;;0.60;99.90;;;;;;4994381;28;20235;-68
2022/01/08 11:17:14;;;;;;;9.60;4.40;;;0.70;99.90;;;;;;4992714;28;20250;-66
2022/01/08 11:19:44;;;;;;;7.93;4.60;;;0.70;99.90;;;;;;4993612;28;20212;-67
2022/01/08 11:22:13;;;;;;;8.73;4.80;;;0.70;99.90;;;;;;4990222;28;20199;-67
2022/01/08 11:24:50;;;;;;;7.93;4.83;;;0.60;99.90;;;;;;4990520;28;20200;-67
2022/01/08 11:27:21;;;;;;;8.43;4.30;;;0.60;99.90;;;;;;4992695;28;20195;-69
2022/01/08 11:29:56;;;;;;;8.30;4.40;;;0.60;99.90;;;;;;4992264;28;20220;-68
2022/01/08 11:32:26;;;;;;;7.93;4.53;;;0.60;99.90;;;;;;4993992;28;20717;-67
2022/01/08 11:34:54;;;;;;;9.83;4.60;;;0.60;99.90;;;;;;4992857;28;20231;-66
2022/01/08 11:37:23;;;;;;;8.07;4.67;;;0.60;99.90;;;;;;4993753;28;20211;-68
2022/01/08 11:39:51;;;;;;;6.80;4.27;;;0.60;99.90;;;;;;4994609;28;20227;-69
2022/01/08 11:42:20;;;;;;;5.70;4.17;;;0.50;99.90;;;;;;4992746;28;20215;-70
2022/01/08 11:44:48;;;;;;;7.37;4.47;;;0.50;99.90;;;;;;4993753;28;20227;-68
2022/01/08 11:47:16;;;;;;;7.87;5.03;;;0.50;99.90;;;;;;4993626;28;20234;-68
2022/01/08 11:49:44;;;;;;;8.30;4.60;;;0.50;99.90;;;;;;4992625;28;20206;-68
2022/01/08 11:52:15;;;;;;;6.57;4.17;;;0.50;99.90;;;;;;4992997;28;20207;-68
2022/01/08 11:54:44;;;;;;;9.20;4.40;;;0.50;99.90;;;;;;4992352;28;20246;-68
2022/01/08 11:57:19;;;;;;;7.90;4.90;;;0.50;99.90;;;;;;4990774;28;20208;-68
2022/01/08 11:59:47;;;;;;;9.93;4.37;;;0.50;99.90;;;;;;4993539;28;20234;-67
2022/01/08 12:02:15;;;;;;;7.07;4.10;;;0.50;99.90;;;;;;4993195;28;20214;-68
2022/01/08 12:04:47;;;;;;;6.60;4.20;;;0.50;99.90;;;;;;4992073;28;20211;-67
2022/01/08 12:07:36;;;;;;;5.53;3.87;;;0.50;99.90;;;;;;4993712;28;20644;-68
2022/01/08 12:10:14;;;;;;;5.73;4.13;;;0.50;99.90;;;;;;4983087;28;20636;-67
2022/01/08 12:12:54;;;;;;;6.27;4.27;;;0.50;99.90;;;;;;4992950;28;20668;-66
2022/01/08 12:15:46;;;;;;;8.10;4.57;;;0.50;99.90;;;;;;4981404;28;20191;-67
2022/01/08 12:18:16;;;;;;;6.43;4.10;;;0.50;99.90;;;;;;4990455;28;20254;-66
2022/01/08 12:20:49;;;;;;;8.43;4.80;;;0.50;99.90;;;;;;4992802;28;20250;-67
2022/01/08 12:23:38;;;;;;;7.13;4.20;;;0.40;99.90;;;;;;4992545;28;20640;-68
2022/01/08 12:26:09;;;;;;;8.00;4.70;;;0.40;99.90;;;;;;4984044;28;20192;-66
2022/01/08 12:28:57;;;;;;;8.50;4.43;;;0.40;99.90;;;;;;4974178;28;20204;-67
2022/01/08 12:31:41;;;;;;;8.37;4.37;;;0.30;99.90;;;;;;4975301;28;20243;-68
2022/01/08 12:34:37;;;;;;;8.23;4.50;;;0.30;99.90;;;;;;4981340;28;20274;-66
2022/01/08 12:37:10;;;;;;;11.13;4.20;;;0.40;99.90;;;;;;4994061;28;20290;-66
2022/01/08 12:39:55;;;;;;;7.30;4.00;;;0.40;99.90;;;;;;4992445;28;20242;-69
2022/01/08 12:42:43;;;;;;;7.23;3.73;;;0.50;99.90;;;;;;4992541;28;20656;-68
2022/01/08 12:45:21;;;;;;;7.30;3.90;;;0.60;99.90;;;;;;4993871;28;20561;-66
2022/01/08 12:47:55;;;;;;;6.50;3.80;;;0.60;99.90;;;;;;4992590;28;20192;-69
2022/01/08 12:50:35;;;;;;;6.97;3.53;;;0.60;99.90;;;;;;4992019;28;20195;-69
2022/01/08 12:53:22;;;;;;;7.40;3.87;;;0.60;99.90;;;;;;4992859;28;20202;-66
2022/01/08 12:56:08;;;;;;;5.37;3.60;;;0.60;99.90;;;;;;4992840;28;20199;-68
2022/01/08 12:58:37;;;;;;;5.87;3.63;;;0.50;99.90;;;;;;4991557;28;20606;-67
2022/01/08 13:01:09;;;;;;;8.07;4.00;;;0.50;99.90;;;;;;4982702;28;20561;-68
2022/01/08 13:03:37;;;;;;;6.13;3.93;;;0.50;99.90;;;;;;4992852;28;20493;-68